Time;durP1;ratioP1;P1;durP2;ratioP2;P2;SDS_P1;SDS_P2;PMS_P1;PMS_P2;Temp;Humidity;BMP_temperature;BMP_pressure;BME280_temperature;BME280_humidity;BME280_pressure;Samples;Min_cycle;Max_cycle;Signal;HPM_P1;HPM_P2
2023/08/03 00:01:37;;;;;;;1.10;0.20;;;;;;;;;;5047238;28;20275;-72
2023/08/03 00:04:02;;;;;;;3.08;0.32;;;;;;;;;;5047423;28;20021;-73
2023/08/03 00:06:27;;;;;;;6.70;0.60;;;;;;;;;;5046565;28;20478;-73
2023/08/03 00:08:53;;;;;;;10.17;0.90;;;;;;;;;;5048037;28;20028;-73
2023/08/03 00:11:18;;;;;;;4.55;0.55;;;;;;;;;;5048209;28;20032;-72
2023/08/03 00:13:43;;;;;;;1.60;0.47;;;;;;;;;;5048625;28;20117;-72
2023/08/03 00:16:08;;;;;;;2.65;0.70;;;;;;;;;;5048815;28;20586;-73
2023/08/03 00:18:33;;;;;;;2.53;0.60;;;;;;;;;;5047117;28;20048;-73
2023/08/03 00:20:58;;;;;;;0.75;0.57;;;;;;;;;;5048655;28;22363;-73
2023/08/03 00:23:24;;;;;;;5.43;1.47;;;;;;;;;;5045774;28;20029;-73
2023/08/03 00:25:49;;;;;;;1.77;0.60;;;;;;;;;;5045855;28;20033;-72
2023/08/03 00:28:14;;;;;;;3.43;0.77;;;;;;;;;;5047371;28;20279;-72
2023/08/03 00:30:40;;;;;;;2.20;0.53;;;;;;;;;;5045623;28;20060;-72
2023/08/03 00:33:05;;;;;;;0.30;0.17;;;;;;;;;;5047614;28;20024;-72
2023/08/03 00:35:30;;;;;;;2.17;0.57;;;;;;;;;;5044360;28;20359;-72
2023/08/03 00:37:55;;;;;;;6.97;0.73;;;;;;;;;;5046848;28;20027;-72
2023/08/03 00:40:20;;;;;;;10.27;0.73;;;;;;;;;;5047365;28;20786;-72
2023/08/03 00:42:46;;;;;;;1.33;0.40;;;;;;;;;;5046956;28;20306;-72
2023/08/03 00:45:11;;;;;;;1.00;0.30;;;;;;;;;;5046307;28;20458;-73
2023/08/03 00:47:37;;;;;;;3.83;0.75;;;;;;;;;;5027599;28;20029;-73
2023/08/03 00:50:02;;;;;;;4.28;1.00;;;;;;;;;;5047054;28;20028;-72
2023/08/03 00:52:27;;;;;;;2.50;0.40;;;;;;;;;;5046093;28;20056;-73
2023/08/03 00:54:53;;;;;;;1.10;0.50;;;;;;;;;;5046475;28;20028;-73
2023/08/03 00:57:18;;;;;;;1.20;0.30;;;;;;;;;;5044149;28;20029;-72
2023/08/03 00:59:44;;;;;;;1.27;0.40;;;;;;;;;;5046152;28;20052;-73
2023/08/03 01:02:09;;;;;;;1.75;0.40;;;;;;;;;;5044279;28;20628;-72
2023/08/03 01:04:34;;;;;;;1.00;0.50;;;;;;;;;;5045998;28;20021;-72
2023/08/03 01:06:59;;;;;;;7.23;0.53;;;;;;;;;;5045666;28;20275;-72
2023/08/03 01:09:24;;;;;;;1.53;0.40;;;;;;;;;;5046719;28;20017;-72
2023/08/03 01:11:50;;;;;;;0.55;0.15;;;;;;;;;;5046964;28;20776;-73
2023/08/03 01:14:15;;;;;;;2.70;0.60;;;;;;;;;;5046757;28;20072;-72
2023/08/03 01:16:40;;;;;;;4.25;0.60;;;;;;;;;;5045828;28;20025;-72
2023/08/03 01:19:07;;;;;;;3.90;0.68;;;;;;;;;;5044520;28;20036;-72
2023/08/03 01:21:34;;;;;;;1.17;0.50;;;;;;;;;;5045748;28;20048;-72
2023/08/03 01:23:59;;;;;;;2.50;0.80;;;;;;;;;;5046504;28;20029;-72
2023/08/03 01:26:24;;;;;;;3.30;0.23;;;;;;;;;;5044229;28;20086;-72
2023/08/03 01:28:51;;;;;;;1.75;0.55;;;;;;;;;;5046101;28;20318;-72
2023/08/03 01:31:18;;;;;;;2.85;0.40;;;;;;;;;;5047008;28;20442;-72
2023/08/03 01:33:44;;;;;;;4.47;0.63;;;;;;;;;;5042300;28;20440;-72
2023/08/03 01:36:09;;;;;;;12.37;0.97;;;;;;;;;;5046935;28;20021;-72
2023/08/03 01:38:34;;;;;;;1.40;0.57;;;;;;;;;;5046359;28;20119;-72
2023/08/03 01:41:02;;;;;;;4.93;0.60;;;;;;;;;;5047538;28;20271;-72
2023/08/03 01:43:27;;;;;;;1.77;0.55;;;;;;;;;;5047329;28;20035;-72
2023/08/03 01:45:52;;;;;;;1.70;0.63;;;;;;;;;;5046255;28;20021;-72
2023/08/03 01:48:17;;;;;;;3.38;0.55;;;;;;;;;;5043233;28;20025;-72
2023/08/03 01:50:42;;;;;;;1.08;0.40;;;;;;;;;;5047119;28;20049;-72
2023/08/03 01:53:08;;;;;;;3.50;0.50;;;;;;;;;;5046197;28;20033;-72
2023/08/03 01:55:33;;;;;;;3.27;0.40;;;;;;;;;;5046493;28;20057;-72
2023/08/03 01:57:58;;;;;;;1.17;0.43;;;;;;;;;;5048855;28;20263;-72
2023/08/03 02:00:24;;;;;;;1.90;0.50;;;;;;;;;;5048887;28;20052;-72
2023/08/03 02:02:51;;;;;;;5.50;0.70;;;;;;;;;;5050985;28;20643;-72
2023/08/03 02:05:16;;;;;;;2.03;0.50;;;;;;;;;;5049232;28;20030;-72
2023/08/03 02:07:54;;;;;;;4.05;0.82;;;;;;;;;;5048424;28;20025;-72
2023/08/03 02:10:20;;;;;;;11.50;0.60;;;;;;;;;;5048802;28;20095;-72
2023/08/03 02:12:45;;;;;;;4.07;0.70;;;;;;;;;;5049620;28;20043;-72
2023/08/03 02:15:12;;;;;;;3.20;0.50;;;;;;;;;;5046889;28;20536;-72
2023/08/03 02:17:37;;;;;;;6.97;0.70;;;;;;;;;;5047590;28;20025;-72
2023/08/03 02:20:03;;;;;;;3.28;0.50;;;;;;;;;;5050741;28;20040;-72
2023/08/03 02:22:28;;;;;;;1.17;0.40;;;;;;;;;;5048630;28;20037;-72
2023/08/03 02:24:53;;;;;;;1.17;0.40;;;;;;;;;;5050269;28;20025;-72
2023/08/03 02:27:18;;;;;;;4.90;0.40;;;;;;;;;;5047816;28;20275;-72
2023/08/03 02:29:43;;;;;;;4.63;0.63;;;;;;;;;;5046624;28;20040;-72
2023/08/03 02:32:08;;;;;;;1.20;0.43;;;;;;;;;;5049181;28;20025;-72
2023/08/03 02:34:33;;;;;;;1.83;0.52;;;;;;;;;;5049380;28;20047;-72
2023/08/03 02:36:59;;;;;;;5.73;0.50;;;;;;;;;;5048366;28;20032;-72
2023/08/03 02:39:24;;;;;;;2.27;0.53;;;;;;;;;;5046742;28;20294;-72
2023/08/03 02:41:49;;;;;;;2.53;0.50;;;;;;;;;;5043051;28;20031;-72
2023/08/03 02:44:14;;;;;;;0.97;0.60;;;;;;;;;;5039477;28;20525;-72
2023/08/03 02:46:40;;;;;;;3.20;0.87;;;;;;;;;;5047745;28;20025;-72
2023/08/03 02:49:05;;;;;;;1.85;0.40;;;;;;;;;;5046918;28;20321;-72
2023/08/03 02:51:30;;;;;;;5.63;0.73;;;;;;;;;;5049687;28;20110;-72
2023/08/03 02:53:56;;;;;;;5.30;0.50;;;;;;;;;;5044715;28;20027;-72
2023/08/03 02:56:21;;;;;;;1.23;0.50;;;;;;;;;;5045289;28;20266;-72
2023/08/03 02:58:46;;;;;;;0.57;0.27;;;;;;;;;;5043082;28;20469;-72
2023/08/03 03:01:11;;;;;;;0.52;0.30;;;;;;;;;;5048511;28;20056;-72
2023/08/03 03:03:36;;;;;;;2.78;0.47;;;;;;;;;;5048083;28;20025;-72
2023/08/03 03:06:01;;;;;;;0.98;0.65;;;;;;;;;;5049897;28;20040;-72
2023/08/03 03:08:27;;;;;;;1.73;0.50;;;;;;;;;;5046976;28;20478;-72
2023/08/03 03:10:52;;;;;;;1.83;0.40;;;;;;;;;;5047102;28;20031;-72
2023/08/03 03:13:17;;;;;;;1.07;0.40;;;;;;;;;;5049087;28;20072;-72
2023/08/03 03:15:43;;;;;;;1.57;0.30;;;;;;;;;;5047817;28;20318;-72
2023/08/03 03:18:08;;;;;;;1.73;0.20;;;;;;;;;;5047524;28;20263;-72
2023/08/03 03:20:33;;;;;;;9.52;1.00;;;;;;;;;;5044245;28;20077;-72
2023/08/03 03:22:58;;;;;;;3.63;0.60;;;;;;;;;;5049032;28;20058;-72
2023/08/03 03:25:23;;;;;;;1.90;0.38;;;;;;;;;;5047262;28;20501;-72
2023/08/03 03:27:48;;;;;;;5.53;0.68;;;;;;;;;;5047938;28;20033;-72
2023/08/03 03:30:16;;;;;;;5.10;0.47;;;;;;;;;;5043742;28;20057;-72
2023/08/03 03:32:41;;;;;;;6.60;0.43;;;;;;;;;;5046550;28;20170;-72
2023/08/03 03:35:07;;;;;;;0.97;0.40;;;;;;;;;;5048053;28;20557;-72
2023/08/03 03:37:32;;;;;;;2.08;0.40;;;;;;;;;;5047929;28;20028;-72
2023/08/03 03:39:57;;;;;;;1.43;0.50;;;;;;;;;;5048791;28;20041;-72
2023/08/03 03:42:22;;;;;;;2.33;0.40;;;;;;;;;;5047139;28;20032;-72
2023/08/03 03:44:47;;;;;;;1.40;0.40;;;;;;;;;;5049976;28;20043;-72
2023/08/03 03:47:12;;;;;;;1.65;0.40;;;;;;;;;;5048448;28;20270;-72
2023/08/03 03:49:38;;;;;;;2.00;0.50;;;;;;;;;;5047165;28;20029;-72
2023/08/03 03:52:03;;;;;;;0.40;0.30;;;;;;;;;;5048115;28;20056;-72
2023/08/03 03:54:28;;;;;;;1.13;0.73;;;;;;;;;;5044614;28;20350;-72
2023/08/03 03:56:55;;;;;;;0.88;0.50;;;;;;;;;;5047078;28;20158;-72
2023/08/03 03:59:20;;;;;;;0.55;0.20;;;;;;;;;;5044538;28;20029;-72
2023/08/03 04:01:45;;;;;;;4.95;0.47;;;;;;;;;;5047801;28;20042;-72
2023/08/03 04:04:10;;;;;;;3.92;0.25;;;;;;;;;;5046344;28;20032;-72
2023/08/03 04:06:35;;;;;;;2.10;0.40;;;;;;;;;;5042091;28;20060;-72
2023/08/03 04:09:00;;;;;;;1.07;0.50;;;;;;;;;;5044921;28;20024;-72
2023/08/03 04:11:26;;;;;;;1.30;0.63;;;;;;;;;;5041356;28;20970;-72
2023/08/03 04:13:51;;;;;;;0.52;0.22;;;;;;;;;;5046470;28;20021;-72
2023/08/03 04:16:16;;;;;;;0.20;0.20;;;;;;;;;;5040093;28;20029;-72
2023/08/03 04:18:41;;;;;;;4.30;0.40;;;;;;;;;;5041760;28;20025;-72
2023/08/03 04:21:06;;;;;;;1.17;0.30;;;;;;;;;;5047051;28;20025;-72
2023/08/03 04:23:31;;;;;;;3.03;0.30;;;;;;;;;;5043190;28;20365;-72
2023/08/03 04:25:56;;;;;;;0.60;0.20;;;;;;;;;;5046664;28;20116;-72
2023/08/03 04:28:22;;;;;;;1.40;0.20;;;;;;;;;;5045701;28;20440;-72
2023/08/03 04:30:47;;;;;;;3.30;0.40;;;;;;;;;;5046214;28;20330;-72
2023/08/03 04:33:12;;;;;;;6.10;0.40;;;;;;;;;;5045971;28;20263;-72
2023/08/03 04:35:37;;;;;;;2.05;0.30;;;;;;;;;;5043301;28;20027;-72
2023/08/03 04:38:02;;;;;;;0.88;0.20;;;;;;;;;;5045860;28;20029;-72
2023/08/03 04:40:28;;;;;;;1.08;0.20;;;;;;;;;;5045823;28;20029;-72
2023/08/03 04:42:53;;;;;;;0.23;0.20;;;;;;;;;;5046790;28;20036;-72
2023/08/03 04:45:18;;;;;;;0.20;0.10;;;;;;;;;;5045442;28;20032;-72
2023/08/03 04:47:43;;;;;;;0.20;0.20;;;;;;;;;;5045146;28;20059;-72
2023/08/03 04:50:08;;;;;;;0.90;0.27;;;;;;;;;;5044999;28;20108;-72
2023/08/03 04:52:34;;;;;;;1.35;0.28;;;;;;;;;;5045657;28;20036;-72
2023/08/03 04:54:59;;;;;;;0.88;0.20;;;;;;;;;;5044720;28;20017;-72
2023/08/03 04:57:24;;;;;;;0.47;0.28;;;;;;;;;;5041491;28;20490;-72
2023/08/03 04:59:49;;;;;;;2.88;0.38;;;;;;;;;;5043647;28;20025;-72
2023/08/03 05:02:14;;;;;;;0.10;0.10;;;;;;;;;;5047818;28;20033;-72
2023/08/03 05:04:39;;;;;;;2.38;0.10;;;;;;;;;;5046574;28;20074;-72
2023/08/03 05:07:05;;;;;;;2.03;0.33;;;;;;;;;;5045614;28;20044;-72
2023/08/03 05:09:30;;;;;;;0.77;0.20;;;;;;;;;;5042287;28;20299;-72
2023/08/03 05:11:55;;;;;;;0.30;0.20;;;;;;;;;;5043742;28;20385;-72
2023/08/03 05:14:20;;;;;;;0.30;0.20;;;;;;;;;;5042129;28;20025;-72
2023/08/03 05:16:45;;;;;;;0.23;0.10;;;;;;;;;;5043772;28;20021;-72
2023/08/03 05:19:10;;;;;;;2.10;0.30;;;;;;;;;;5043881;28;20363;-72
2023/08/03 05:21:36;;;;;;;0.30;0.15;;;;;;;;;;5043375;28;20051;-72
2023/08/03 05:24:01;;;;;;;0.52;0.17;;;;;;;;;;5045717;28;20054;-72
2023/08/03 05:26:26;;;;;;;0.30;0.20;;;;;;;;;;5042277;28;20394;-72
2023/08/03 05:28:51;;;;;;;0.15;0.15;;;;;;;;;;5046483;28;20032;-72
2023/08/03 05:31:17;;;;;;;1.30;0.30;;;;;;;;;;5049324;28;20112;-72
2023/08/03 05:33:42;;;;;;;5.82;0.30;;;;;;;;;;5048699;28;20071;-72
2023/08/03 05:36:08;;;;;;;2.77;0.40;;;;;;;;;;5046279;28;20512;-72
2023/08/03 05:38:33;;;;;;;2.50;0.35;;;;;;;;;;5044959;28;20436;-72
2023/08/03 05:40:58;;;;;;;0.30;0.17;;;;;;;;;;5043107;28;20029;-72
2023/08/03 05:43:24;;;;;;;4.73;0.30;;;;;;;;;;5045483;28;20107;-72
2023/08/03 05:45:51;;;;;;;0.88;0.28;;;;;;;;;;5038900;28;20756;-72
2023/08/03 05:48:20;;;;;;;0.22;0.10;;;;;;;;;;5045680;28;20036;-72
2023/08/03 05:50:49;;;;;;;0.22;0.20;;;;;;;;;;5046865;28;20116;-72
2023/08/03 05:53:15;;;;;;;1.77;0.20;;;;;;;;;;5049405;28;20113;-72
2023/08/03 05:55:41;;;;;;;3.25;0.20;;;;;;;;;;5048767;28;20420;-72
2023/08/03 05:58:08;;;;;;;0.70;0.28;;;;;;;;;;5043514;28;20024;-72
2023/08/03 06:00:34;;;;;;;1.85;0.30;;;;;;;;;;5040652;28;20059;-72
2023/08/03 06:02:59;;;;;;;1.00;0.20;;;;;;;;;;5046986;28;20536;-72
2023/08/03 06:05:43;;;;;;;4.47;0.50;;;;;;;;;;5043720;28;20445;-72
2023/08/03 06:08:19;;;;;;;1.75;0.30;;;;;;;;;;5044553;28;20025;-72
2023/08/03 06:10:45;;;;;;;0.80;0.20;;;;;;;;;;5045854;28;20377;-72
2023/08/03 06:13:12;;;;;;;0.35;0.20;;;;;;;;;;5046041;28;20013;-72
2023/08/03 06:15:38;;;;;;;1.42;0.30;;;;;;;;;;5048171;28;20377;-72
2023/08/03 06:18:04;;;;;;;0.88;0.35;;;;;;;;;;5027440;28;20071;-72
2023/08/03 06:20:29;;;;;;;1.63;0.52;;;;;;;;;;5042648;28;20025;-72
2023/08/03 06:22:55;;;;;;;1.60;0.77;;;;;;;;;;5049758;28;20033;-72
2023/08/03 06:25:22;;;;;;;0.77;0.20;;;;;;;;;;5046936;28;20079;-72
2023/08/03 06:27:47;;;;;;;1.83;0.30;;;;;;;;;;5045841;28;20035;-72
2023/08/03 06:30:13;;;;;;;3.22;0.30;;;;;;;;;;5046919;28;20029;-72
2023/08/03 06:32:38;;;;;;;0.98;0.35;;;;;;;;;;5044009;28;20017;-72
2023/08/03 06:35:04;;;;;;;1.67;0.30;;;;;;;;;;5046352;28;20025;-72
2023/08/03 06:37:29;;;;;;;1.83;0.40;;;;;;;;;;5044229;28;20271;-72
2023/08/03 06:39:54;;;;;;;2.58;0.40;;;;;;;;;;5047410;28;20024;-72
2023/08/03 06:42:19;;;;;;;1.60;0.30;;;;;;;;;;5046076;28;20479;-72
2023/08/03 06:44:44;;;;;;;5.07;0.60;;;;;;;;;;5046774;28;20098;-73
2023/08/03 06:47:10;;;;;;;7.22;0.75;;;;;;;;;;5049030;28;20787;-72
2023/08/03 06:49:35;;;;;;;1.30;0.43;;;;;;;;;;5046172;28;20642;-73
2023/08/03 06:52:00;;;;;;;4.53;0.50;;;;;;;;;;5049170;28;20949;-73
2023/08/03 06:54:25;;;;;;;0.75;0.30;;;;;;;;;;5045481;28;20276;-73
2023/08/03 06:56:50;;;;;;;1.50;0.50;;;;;;;;;;5046946;28;20512;-72
2023/08/03 06:59:21;;;;;;;1.20;0.43;;;;;;;;;;5045557;28;20275;-72
2023/08/03 07:01:46;;;;;;;4.18;0.57;;;;;;;;;;5045325;28;20414;-72
2023/08/03 07:04:11;;;;;;;3.08;0.80;;;;;;;;;;5049887;28;20531;-72
2023/08/03 07:06:36;;;;;;;3.27;0.50;;;;;;;;;;5046707;28;20490;-72
2023/08/03 07:09:01;;;;;;;2.10;0.40;;;;;;;;;;5047058;28;20021;-72
2023/08/03 07:11:27;;;;;;;1.00;0.50;;;;;;;;;;5044397;28;20557;-72
2023/08/03 07:13:52;;;;;;;1.63;0.50;;;;;;;;;;5047862;28;20021;-72
2023/08/03 07:16:17;;;;;;;2.83;0.60;;;;;;;;;;5046685;28;20280;-72
2023/08/03 07:18:42;;;;;;;3.50;0.97;;;;;;;;;;5047622;28;20482;-72
2023/08/03 07:21:07;;;;;;;2.35;0.57;;;;;;;;;;5046026;28;20025;-72
2023/08/03 07:23:33;;;;;;;4.28;0.50;;;;;;;;;;5044691;28;20033;-72
2023/08/03 07:25:58;;;;;;;2.85;0.50;;;;;;;;;;5048562;28;20409;-72
2023/08/03 07:28:23;;;;;;;3.17;0.63;;;;;;;;;;5046485;28;20035;-72
2023/08/03 07:30:48;;;;;;;2.88;0.82;;;;;;;;;;5045748;28;20033;-72
2023/08/03 07:33:13;;;;;;;4.73;0.53;;;;;;;;;;5046895;28;20025;-72
2023/08/03 07:35:38;;;;;;;5.67;0.70;;;;;;;;;;5049134;28;20322;-72
2023/08/03 07:38:04;;;;;;;3.40;0.70;;;;;;;;;;5048886;28;20036;-72
2023/08/03 07:40:29;;;;;;;4.03;0.60;;;;;;;;;;5049041;28;20123;-72
2023/08/03 07:42:54;;;;;;;1.77;0.73;;;;;;;;;;5050103;28;20036;-72
2023/08/03 07:45:19;;;;;;;0.77;0.43;;;;;;;;;;5043724;28;20087;-72
2023/08/03 07:47:44;;;;;;;8.25;0.77;;;;;;;;;;5048581;28;20017;-72
2023/08/03 07:50:10;;;;;;;1.87;0.67;;;;;;;;;;5048521;28;20524;-72
2023/08/03 07:52:36;;;;;;;3.70;0.95;;;;;;;;;;5050466;28;20139;-72
2023/08/03 07:55:01;;;;;;;2.20;0.67;;;;;;;;;;5046979;28;20481;-72
2023/08/03 07:57:26;;;;;;;2.17;0.60;;;;;;;;;;5044534;28;20082;-72
2023/08/03 07:59:51;;;;;;;9.27;0.80;;;;;;;;;;5049419;28;20017;-72
2023/08/03 08:02:17;;;;;;;2.00;0.70;;;;;;;;;;5047442;28;20267;-72
2023/08/03 08:04:42;;;;;;;2.78;0.80;;;;;;;;;;5048752;28;20028;-72
2023/08/03 08:07:07;;;;;;;4.23;0.83;;;;;;;;;;5047070;28;20478;-72
2023/08/03 08:09:32;;;;;;;4.43;0.77;;;;;;;;;;5045378;28;20310;-72
2023/08/03 08:11:57;;;;;;;5.93;0.88;;;;;;;;;;5046594;28;20283;-72
2023/08/03 08:14:22;;;;;;;2.10;0.53;;;;;;;;;;5047366;28;20020;-72
2023/08/03 08:16:48;;;;;;;1.07;0.50;;;;;;;;;;5046754;28;20056;-72
2023/08/03 08:19:14;;;;;;;1.77;0.85;;;;;;;;;;5047076;28;20131;-72
2023/08/03 08:21:39;;;;;;;4.10;0.60;;;;;;;;;;5046132;28;20120;-72
2023/08/03 08:24:04;;;;;;;2.13;1.00;;;;;;;;;;5048950;28;20029;-72
2023/08/03 08:26:31;;;;;;;0.55;0.40;;;;;;;;;;5046276;28;20267;-72
2023/08/03 08:28:58;;;;;;;5.57;0.95;;;;;;;;;;5047904;28;20444;-72
2023/08/03 08:31:24;;;;;;;1.98;0.80;;;;;;;;;;5046063;28;20059;-72
2023/08/03 08:33:49;;;;;;;1.23;0.45;;;;;;;;;;5043577;28;20052;-72
2023/08/03 08:36:14;;;;;;;4.57;1.00;;;;;;;;;;5047278;28;20029;-72
2023/08/03 08:38:39;;;;;;;1.73;0.85;;;;;;;;;;5042313;28;20484;-72
2023/08/03 08:41:04;;;;;;;1.33;0.50;;;;;;;;;;5047446;28;20044;-72
2023/08/03 08:43:29;;;;;;;5.97;0.80;;;;;;;;;;5047774;28;20816;-72
2023/08/03 08:45:55;;;;;;;0.73;0.40;;;;;;;;;;5048509;28;20273;-72
2023/08/03 08:48:20;;;;;;;0.35;0.30;;;;;;;;;;5046881;28;20029;-72
2023/08/03 08:50:46;;;;;;;2.90;0.73;;;;;;;;;;5048018;28;20048;-72
2023/08/03 08:53:13;;;;;;;4.07;0.77;;;;;;;;;;5047814;28;20119;-72
2023/08/03 08:55:38;;;;;;;3.17;0.65;;;;;;;;;;5047268;28;20052;-72
2023/08/03 08:58:03;;;;;;;3.38;0.70;;;;;;;;;;5048220;28;20564;-72
2023/08/03 09:00:28;;;;;;;2.13;0.70;;;;;;;;;;5047019;28;20021;-72
2023/08/03 09:02:55;;;;;;;1.73;0.60;;;;;;;;;;5048490;28;20306;-72
2023/08/03 09:05:21;;;;;;;3.75;0.70;;;;;;;;;;5046592;28;20279;-72
2023/08/03 09:08:00;;;;;;;4.15;1.33;;;;;;;;;;5027044;28;20078;-72
2023/08/03 09:10:25;;;;;;;2.28;0.60;;;;;;;;;;5047947;28;20401;-72
2023/08/03 09:12:50;;;;;;;1.75;0.80;;;;;;;;;;5036651;28;20021;-72
2023/08/03 09:15:16;;;;;;;0.52;0.47;;;;;;;;;;5037554;28;20071;-72
2023/08/03 09:17:44;;;;;;;2.42;0.65;;;;;;;;;;5038227;28;20024;-72
2023/08/03 09:20:22;;;;;;;5.93;0.70;;;;;;;;;;5043332;28;20104;-72
2023/08/03 09:22:47;;;;;;;1.98;0.70;;;;;;;;;;5045218;28;20121;-72
2023/08/03 09:25:13;;;;;;;1.17;0.60;;;;;;;;;;5046755;28;20104;-72
2023/08/03 09:27:48;;;;;;;1.73;0.60;;;;;;;;;;5045363;28;20029;-72
2023/08/03 09:30:13;;;;;;;2.17;0.50;;;;;;;;;;5042462;28;20033;-72
2023/08/03 09:32:38;;;;;;;0.20;0.20;;;;;;;;;;5026024;28;20056;-73
2023/08/03 09:35:15;;;;;;;1.05;0.45;;;;;;;;;;5046398;28;20949;-72
2023/08/03 09:37:40;;;;;;;1.75;0.50;;;;;;;;;;5042899;28;20032;-72
2023/08/03 09:40:07;;;;;;;0.60;0.40;;;;;;;;;;5047159;28;20029;-72
2023/08/03 09:42:32;;;;;;;2.58;0.70;;;;;;;;;;5044456;28;20017;-72
2023/08/03 09:44:59;;;;;;;1.02;0.50;;;;;;;;;;5046439;28;20035;-72
2023/08/03 09:47:24;;;;;;;2.13;0.40;;;;;;;;;;5044086;28;20112;-72
2023/08/03 09:49:50;;;;;;;2.47;0.60;;;;;;;;;;5042710;28;20593;-72
2023/08/03 09:52:21;;;;;;;3.45;0.50;;;;;;;;;;5042233;28;20631;-72
2023/08/03 09:54:55;;;;;;;1.77;0.60;;;;;;;;;;5038782;28;20021;-72
2023/08/03 09:57:22;;;;;;;1.98;0.70;;;;;;;;;;5040530;28;21021;-71
2023/08/03 09:59:50;;;;;;;1.17;0.60;;;;;;;;;;5044256;28;20116;-72
2023/08/03 10:02:17;;;;;;;0.98;0.45;;;;;;;;;;5040663;28;20020;-72
2023/08/03 10:04:43;;;;;;;1.52;0.40;;;;;;;;;;5040542;28;20044;-71
2023/08/03 10:07:09;;;;;;;6.38;0.82;;;;;;;;;;5038212;28;20418;-72
2023/08/03 10:09:39;;;;;;;2.15;0.68;;;;;;;;;;5038465;28;20104;-71
2023/08/03 10:12:08;;;;;;;7.00;0.80;;;;;;;;;;5042454;28;20033;-71
2023/08/03 10:14:35;;;;;;;2.05;1.58;;;;;;;;;;5037028;28;20021;-72
2023/08/03 10:17:00;;;;;;;11.35;2.55;;;;;;;;;;5044885;28;20017;-71
2023/08/03 10:19:27;;;;;;;11.38;4.60;;;;;;;;;;5030403;28;20064;-72
2023/08/03 10:21:52;;;;;;;6.93;4.80;;;;;;;;;;5047889;28;20517;-71
2023/08/03 10:24:18;;;;;;;7.75;4.15;;;;;;;;;;5047760;28;20017;-72
2023/08/03 10:26:43;;;;;;;7.65;2.08;;;;;;;;;;5046179;28;20014;-71
2023/08/03 10:29:09;;;;;;;1.08;0.70;;;;;;;;;;5047827;28;20036;-72
2023/08/03 10:31:50;;;;;;;1.45;0.85;;;;;;;;;;5046030;28;20039;-72
2023/08/03 10:34:23;;;;;;;2.28;0.85;;;;;;;;;;5045368;28;20491;-71
2023/08/03 10:36:50;;;;;;;7.35;1.20;;;;;;;;;;5048242;28;20021;-71
2023/08/03 10:39:35;;;;;;;4.30;1.08;;;;;;;;;;5047183;28;20383;-72
2023/08/03 10:42:17;;;;;;;2.90;1.02;;;;;;;;;;5045199;28;20029;-71
2023/08/03 10:44:42;;;;;;;2.65;1.20;;;;;;;;;;5047356;28;20513;-71
2023/08/03 10:47:20;;;;;;;1.83;1.13;;;;;;;;;;5045229;28;20041;-71
2023/08/03 10:49:49;;;;;;;5.53;1.48;;;;;;;;;;5047972;28;20787;-72
2023/08/03 10:52:16;;;;;;;2.15;0.65;;;;;;;;;;5044976;28;20066;-72
2023/08/03 10:54:41;;;;;;;2.47;1.10;;;;;;;;;;5046527;28;20013;-71
2023/08/03 10:57:08;;;;;;;3.50;0.73;;;;;;;;;;5046228;28;20021;-72
2023/08/03 10:59:39;;;;;;;2.33;0.70;;;;;;;;;;5045690;28;20021;-72
2023/08/03 11:02:08;;;;;;;3.88;1.00;;;;;;;;;;5050213;28;20490;-71
2023/08/03 11:04:34;;;;;;;4.50;1.02;;;;;;;;;;5047817;28;20470;-71
2023/08/03 11:06:59;;;;;;;3.13;0.90;;;;;;;;;;5047857;28;20094;-71
2023/08/03 11:09:25;;;;;;;6.03;1.13;;;;;;;;;;5048626;28;20473;-71
2023/08/03 11:11:54;;;;;;;3.85;0.77;;;;;;;;;;5043229;28;20305;-71
2023/08/03 11:14:19;;;;;;;3.33;0.70;;;;;;;;;;5048984;28;20028;-72
2023/08/03 11:16:45;;;;;;;7.20;1.65;;;;;;;;;;5048008;28;20033;-71
2023/08/03 11:19:13;;;;;;;5.43;1.25;;;;;;;;;;5048697;28;20025;-71
2023/08/03 11:21:40;;;;;;;4.15;1.30;;;;;;;;;;5046290;28;20109;-71
2023/08/03 11:24:05;;;;;;;6.15;1.05;;;;;;;;;;5029281;28;20044;-71
2023/08/03 11:26:31;;;;;;;9.20;1.52;;;;;;;;;;5045682;28;20521;-72
2023/08/03 11:28:56;;;;;;;4.97;1.65;;;;;;;;;;5046051;28;20029;-72
2023/08/03 11:31:21;;;;;;;8.15;1.80;;;;;;;;;;5048287;28;20474;-72
2023/08/03 11:33:56;;;;;;;3.57;1.20;;;;;;;;;;5048621;28;20503;-71
2023/08/03 11:36:22;;;;;;;2.58;1.23;;;;;;;;;;5048707;28;20021;-71
2023/08/03 11:38:49;;;;;;;4.10;1.48;;;;;;;;;;5046102;28;20548;-71
2023/08/03 11:41:16;;;;;;;4.60;1.00;;;;;;;;;;5047382;28;20033;-72
2023/08/03 11:43:41;;;;;;;5.93;1.58;;;;;;;;;;5045236;28;20017;-72
2023/08/03 11:46:07;;;;;;;10.75;1.33;;;;;;;;;;5046981;28;20143;-72
2023/08/03 11:48:32;;;;;;;4.30;0.90;;;;;;;;;;5045700;28;20062;-72
2023/08/03 11:51:01;;;;;;;2.73;1.03;;;;;;;;;;5045803;28;20021;-71
2023/08/03 11:53:26;;;;;;;9.52;0.80;;;;;;;;;;5040510;28;20028;-71
2023/08/03 11:55:52;;;;;;;5.43;1.20;;;;;;;;;;5046247;28;20029;-72
2023/08/03 11:58:21;;;;;;;3.60;1.02;;;;;;;;;;5046633;28;20047;-72
2023/08/03 12:00:46;;;;;;;6.70;1.20;;;;;;;;;;5047695;28;20036;-72
2023/08/03 12:03:17;;;;;;;6.90;1.88;;;;;;;;;;5047158;28;20888;-71
2023/08/03 12:05:49;;;;;;;4.85;1.38;;;;;;;;;;5044473;28;20033;-72
2023/08/03 12:08:20;;;;;;;5.25;0.93;;;;;;;;;;5045142;28;20056;-71
2023/08/03 12:10:55;;;;;;;4.70;1.10;;;;;;;;;;5045368;28;20028;-71
2023/08/03 12:13:21;;;;;;;7.63;1.23;;;;;;;;;;5022323;28;20246;-72
2023/08/03 12:15:46;;;;;;;2.23;1.03;;;;;;;;;;5046465;28;20513;-72
2023/08/03 12:18:11;;;;;;;7.90;2.57;;;;;;;;;;5046849;28;20884;-71
2023/08/03 12:20:36;;;;;;;4.63;1.80;;;;;;;;;;5045981;28;20020;-72
2023/08/03 12:23:01;;;;;;;4.88;1.08;;;;;;;;;;5047985;28;20115;-72
2023/08/03 12:25:26;;;;;;;11.10;1.67;;;;;;;;;;5046713;28;20021;-72
2023/08/03 12:27:52;;;;;;;4.45;1.25;;;;;;;;;;5046031;28;20109;-72
2023/08/03 12:30:17;;;;;;;4.30;1.52;;;;;;;;;;5045149;28;20033;-72
2023/08/03 12:32:42;;;;;;;4.47;1.53;;;;;;;;;;5045069;28;20041;-72
2023/08/03 12:35:08;;;;;;;4.90;1.23;;;;;;;;;;5045332;28;20020;-72
2023/08/03 12:37:33;;;;;;;3.50;1.00;;;;;;;;;;5042839;28;20052;-72
2023/08/03 12:39:58;;;;;;;2.92;1.25;;;;;;;;;;5046928;28;20061;-72
2023/08/03 12:42:23;;;;;;;2.30;0.80;;;;;;;;;;5045068;28;20032;-72
2023/08/03 12:44:49;;;;;;;3.15;0.98;;;;;;;;;;5046242;28;20100;-72
2023/08/03 12:47:14;;;;;;;3.63;1.50;;;;;;;;;;5045243;28;20033;-72
2023/08/03 12:49:39;;;;;;;2.60;1.20;;;;;;;;;;5046453;28;20500;-72
2023/08/03 12:52:04;;;;;;;5.35;1.70;;;;;;;;;;5047214;28;20032;-72
2023/08/03 12:54:30;;;;;;;4.80;1.48;;;;;;;;;;5045427;28;20024;-72
2023/08/03 12:56:55;;;;;;;7.40;1.98;;;;;;;;;;5047426;28;20108;-72
2023/08/03 12:59:20;;;;;;;4.13;1.10;;;;;;;;;;5046648;28;20021;-72
2023/08/03 13:01:45;;;;;;;4.37;1.70;;;;;;;;;;5046227;28;20115;-72
2023/08/03 13:04:11;;;;;;;7.83;1.77;;;;;;;;;;5046848;28;20271;-72
2023/08/03 13:06:36;;;;;;;4.35;1.30;;;;;;;;;;5047035;28;20290;-72
2023/08/03 13:09:01;;;;;;;5.37;1.83;;;;;;;;;;5047885;28;20044;-72
2023/08/03 13:11:26;;;;;;;4.80;1.97;;;;;;;;;;5047185;28;20108;-72
2023/08/03 13:13:52;;;;;;;6.10;1.70;;;;;;;;;;5048503;28;20671;-72
2023/08/03 13:16:19;;;;;;;5.70;1.63;;;;;;;;;;5045572;28;20035;-72
2023/08/03 13:18:45;;;;;;;5.65;1.58;;;;;;;;;;5047042;28;20359;-72
2023/08/03 13:21:12;;;;;;;8.38;1.50;;;;;;;;;;5047728;28;20035;-72
2023/08/03 13:23:37;;;;;;;2.72;1.10;;;;;;;;;;5045387;28;20494;-72
2023/08/03 13:26:02;;;;;;;3.10;1.10;;;;;;;;;;5046932;28;20150;-72
2023/08/03 13:28:27;;;;;;;4.87;1.10;;;;;;;;;;5043509;28;20057;-72
2023/08/03 13:30:52;;;;;;;3.67;0.98;;;;;;;;;;5047992;28;20067;-72
2023/08/03 13:33:18;;;;;;;4.88;1.30;;;;;;;;;;5046147;28;20074;-72
2023/08/03 13:35:43;;;;;;;9.60;1.20;;;;;;;;;;5046455;28;20064;-72
2023/08/03 13:38:08;;;;;;;3.80;1.13;;;;;;;;;;5046827;28;20033;-72
2023/08/03 13:40:33;;;;;;;2.83;1.33;;;;;;;;;;5044035;28;20025;-72
2023/08/03 13:42:58;;;;;;;3.27;1.13;;;;;;;;;;5046032;28;20076;-72
2023/08/03 13:45:23;;;;;;;3.87;0.90;;;;;;;;;;5045834;28;20024;-72
2023/08/03 13:47:49;;;;;;;5.77;1.03;;;;;;;;;;5046006;28;20029;-72
2023/08/03 13:50:14;;;;;;;1.63;0.68;;;;;;;;;;5046705;28;20322;-72
2023/08/03 13:52:39;;;;;;;2.72;0.65;;;;;;;;;;5049317;28;20052;-72
2023/08/03 13:55:05;;;;;;;8.80;0.70;;;;;;;;;;5051700;28;20024;-72
2023/08/03 13:57:30;;;;;;;1.10;0.70;;;;;;;;;;5049420;28;20017;-72
2023/08/03 13:59:55;;;;;;;4.37;1.07;;;;;;;;;;5034023;28;20099;-72
2023/08/03 14:02:21;;;;;;;4.93;1.40;;;;;;;;;;5050135;28;20815;-72
2023/08/03 14:04:46;;;;;;;1.95;1.00;;;;;;;;;;5045722;28;20275;-72
2023/08/03 14:07:11;;;;;;;5.87;1.17;;;;;;;;;;5027168;28;20024;-72
2023/08/03 14:09:36;;;;;;;1.60;0.93;;;;;;;;;;5048195;28;20509;-72
2023/08/03 14:12:03;;;;;;;7.65;1.10;;;;;;;;;;5047773;28;20031;-72
2023/08/03 14:14:28;;;;;;;2.75;1.05;;;;;;;;;;5050180;28;20458;-72
2023/08/03 14:16:53;;;;;;;3.43;1.00;;;;;;;;;;5046792;28;20075;-72
2023/08/03 14:19:19;;;;;;;5.45;1.67;;;;;;;;;;5047104;28;20025;-72
2023/08/03 14:21:44;;;;;;;5.43;1.48;;;;;;;;;;5046950;28;20056;-72
2023/08/03 14:24:10;;;;;;;5.47;1.80;;;;;;;;;;5049375;28;20036;-72
2023/08/03 14:26:35;;;;;;;9.00;2.60;;;;;;;;;;5048253;28;20025;-72
2023/08/03 14:29:00;;;;;;;3.63;0.90;;;;;;;;;;5050088;28;20474;-72
2023/08/03 14:31:25;;;;;;;3.58;1.23;;;;;;;;;;5046371;28;20116;-72
2023/08/03 14:33:51;;;;;;;3.53;1.00;;;;;;;;;;5050437;28;20025;-72
2023/08/03 14:36:16;;;;;;;2.23;0.73;;;;;;;;;;5042604;28;20018;-72